createdAt,value
2023-05-21T00:02:11.803Z,101761.03
2023-05-21T00:04:40.541Z,101761.06
2023-05-21T00:07:08.364Z,101748.88
2023-05-21T00:09:36.267Z,101750.63
2023-05-21T00:12:02.703Z,101747.16
2023-05-21T00:14:29.079Z,101748.03
2023-05-21T00:16:55.738Z,101751.53
2023-05-21T00:19:22.182Z,101747.19
2023-05-21T00:21:48.536Z,101748.91
2023-05-21T00:24:15.060Z,101731.56
2023-05-21T00:26:41.863Z,101739.38
2023-05-21T00:29:08.229Z,101737.63
2023-05-21T00:31:34.555Z,101736.75
2023-05-21T00:34:00.940Z,101736.75
2023-05-21T00:36:27.269Z,101730.69
2023-05-21T00:38:53.682Z,101736.75
2023-05-21T00:41:22.854Z,101735.03
2023-05-21T00:43:49.184Z,101738.50
2023-05-21T00:46:19.475Z,101728.94
2023-05-21T00:48:46.645Z,101728.97
2023-05-21T00:51:18.298Z,101729.84
2023-05-21T00:53:47.937Z,101726.34
2023-05-21T00:56:14.343Z,101728.09
2023-05-21T00:58:41.397Z,101729.00
2023-05-21T01:01:13.466Z,101729.88
2023-05-21T01:03:40.858Z,101728.13
2023-05-21T01:06:09.646Z,101728.13
2023-05-21T01:08:37.532Z,101729.84
2023-05-21T01:11:06.029Z,101716.81
2023-05-21T01:13:34.639Z,101721.16
2023-05-21T01:16:02.035Z,101717.69
2023-05-21T01:18:29.702Z,101723.75
2023-05-21T01:20:56.082Z,101711.59
2023-05-21T01:23:22.714Z,101717.66
2023-05-21T01:25:49.048Z,101722.88
2023-05-21T01:28:15.422Z,101719.41
2023-05-21T01:30:43.018Z,101713.34
2023-05-21T01:33:22.376Z,101717.69
2023-05-21T01:36:09.300Z,101714.19
2023-05-21T01:38:48.948Z,101722.03
2023-05-21T01:41:18.386Z,101717.66
2023-05-21T01:43:47.250Z,101719.41
2023-05-21T01:46:23.079Z,101717.66
2023-05-21T01:48:52.616Z,101715.94
2023-05-21T01:51:19.281Z,101713.31
2023-05-21T01:53:45.637Z,101715.06
2023-05-21T01:56:12.533Z,101711.59
2023-05-21T01:58:38.844Z,101705.50
2023-05-21T02:01:05.392Z,101704.66
2023-05-21T02:03:31.991Z,101705.53
2023-05-21T02:05:58.560Z,101702.03
2023-05-21T02:08:25.490Z,101698.56
2023-05-21T02:10:51.842Z,101702.91
2023-05-21T02:13:21.180Z,101700.31
2023-05-21T02:15:48.774Z,101710.72
2023-05-21T02:18:16.546Z,101702.94
2023-05-21T02:20:43.486Z,101699.47
2023-05-21T02:23:10.015Z,101695.13
2023-05-21T02:25:36.510Z,101703.78
2023-05-21T02:28:03.396Z,101698.56
2023-05-21T02:30:29.719Z,101695.09
2023-05-21T02:32:58.714Z,101690.78
2023-05-21T02:35:25.137Z,101693.38
2023-05-21T02:37:51.511Z,101686.41
2023-05-21T02:40:17.923Z,101689.00
2023-05-21T02:42:44.371Z,101685.53
2023-05-21T02:45:11.934Z,101682.09
2023-05-21T02:47:38.943Z,101682.09
2023-05-21T02:50:06.987Z,101676.00
2023-05-21T02:52:33.390Z,101683.81
2023-05-21T02:54:59.785Z,101676.88
2023-05-21T02:57:26.192Z,101673.41
2023-05-21T02:59:52.618Z,101674.28
2023-05-21T03:02:19.129Z,101673.41
2023-05-21T03:04:48.814Z,101667.31
2023-05-21T03:07:17.968Z,101666.44
2023-05-21T03:09:44.584Z,101664.72
2023-05-21T03:12:11.262Z,101671.66
2023-05-21T03:14:38.370Z,101671.69
2023-05-21T03:17:05.966Z,101672.53
2023-05-21T03:19:35.740Z,101677.75
2023-05-21T03:22:03.420Z,101664.72
2023-05-21T03:24:33.061Z,101665.59
2023-05-21T03:27:01.367Z,101668.19
2023-05-21T03:29:28.276Z,101670.81
2023-05-21T03:31:55.726Z,101676.00
2023-05-21T03:34:22.268Z,101670.81
2023-05-21T03:36:49.053Z,101680.34
2023-05-21T03:39:15.578Z,101674.31
2023-05-21T03:41:42.011Z,101672.53
2023-05-21T03:44:09.014Z,101665.59
2023-05-21T03:46:35.775Z,101668.19
2023-05-21T03:49:02.390Z,101669.91
2023-05-21T03:51:30.332Z,101668.19
2023-05-21T03:53:58.664Z,101669.91
2023-05-21T03:56:25.907Z,101663.84
2023-05-21T03:58:52.682Z,101669.06
2023-05-21T04:01:19.520Z,101666.44
2023-05-21T04:03:46.095Z,101667.31
2023-05-21T04:06:12.612Z,101664.69
2023-05-21T04:08:39.540Z,101661.22
2023-05-21T04:11:05.917Z,101671.63
2023-05-21T04:13:32.262Z,101666.38
2023-05-21T04:15:58.762Z,101657.66
2023-05-21T04:18:25.913Z,101662.88
2023-05-21T04:20:53.619Z,101656.81
2023-05-21T04:23:20.117Z,101652.44
2023-05-21T04:25:50.398Z,101649.84
2023-05-21T04:28:19.979Z,101649.81
2023-05-21T04:30:49.808Z,101654.16
2023-05-21T04:33:20.083Z,101657.59
2023-05-21T04:35:49.762Z,101663.69
2023-05-21T04:38:19.428Z,101659.31
2023-05-21T04:40:50.754Z,101649.72
2023-05-21T04:43:17.229Z,101647.06
2023-05-21T04:45:43.888Z,101647.81
2023-05-21T04:48:10.253Z,101643.47
2023-05-21T04:50:36.655Z,101645.13
2023-05-21T04:53:03.384Z,101645.03
2023-05-21T04:55:29.778Z,101640.63
2023-05-21T04:57:56.273Z,101639.78
2023-05-21T05:00:22.700Z,101634.56
2023-05-21T05:02:49.174Z,101637.00
2023-05-21T05:05:15.818Z,101631.72
2023-05-21T05:07:42.200Z,101630.81
2023-05-21T05:10:08.679Z,101632.53
2023-05-21T05:12:35.085Z,101636.81
2023-05-21T05:15:01.452Z,101634.16
2023-05-21T05:17:27.844Z,101630.63
2023-05-21T05:19:54.187Z,101627.13
2023-05-21T05:22:20.528Z,101623.47
2023-05-21T05:24:46.858Z,101623.28
2023-05-21T05:27:13.193Z,101624.09
2023-05-21T05:29:39.557Z,101636.16
2023-05-21T05:32:06.483Z,101626.34
2023-05-21T05:34:32.773Z,101628.91
2023-05-21T05:36:59.155Z,101626.19
2023-05-21T05:39:25.573Z,101624.19
2023-05-21T05:41:51.924Z,101623.03
2023-05-21T05:44:18.258Z,101620.97
2023-05-21T05:46:44.686Z,101618.28
2023-05-21T05:49:11.108Z,101617.53
2023-05-21T05:51:37.623Z,101618.50
2023-05-21T05:54:04.043Z,101613.09
2023-05-21T05:56:30.434Z,101606.94
2023-05-21T05:58:56.780Z,101608.34
2023-05-21T06:01:24.558Z,101609.94
2023-05-21T06:03:51.069Z,101604.56
2023-05-21T06:06:17.875Z,101594.94
2023-05-21T06:08:44.717Z,101598.31
2023-05-21T06:11:11.312Z,101605.81
2023-05-21T06:13:37.709Z,101597.72
2023-05-21T06:16:04.442Z,101594.75
2023-05-21T06:18:30.897Z,101597.88
2023-05-21T06:20:57.708Z,101593.22
2023-05-21T06:23:24.067Z,101600.72
2023-05-21T06:25:50.447Z,101598.72
2023-05-21T06:28:17.726Z,101599.81
2023-05-21T06:30:44.201Z,101597.56
2023-05-21T06:33:11.497Z,101592.72
2023-05-21T06:35:39.743Z,101589.25
2023-05-21T06:38:06.191Z,101590.75
2023-05-21T06:40:32.538Z,101585.31
2023-05-21T06:42:59.739Z,101587.50
2023-05-21T06:45:26.207Z,101592.72
2023-05-21T06:47:52.598Z,101586.78
2023-05-21T06:50:20.049Z,101590.16
2023-05-21T06:52:46.357Z,101582.66
2023-05-21T06:55:12.933Z,101581.06
2023-05-21T06:57:39.280Z,101587.78
2023-05-21T07:00:06.637Z,101590.63
2023-05-21T07:02:33.262Z,101587.53
2023-05-21T07:04:59.683Z,101586.22
2023-05-21T07:07:27.259Z,101587.53
2023-05-21T07:09:53.583Z,101588.16
2023-05-21T07:12:19.954Z,101582.28
2023-05-21T07:14:46.296Z,101583.44
2023-05-21T07:17:12.626Z,101582.97
2023-05-21T07:19:39.072Z,101574.25
2023-05-21T07:22:06.003Z,101579.53
2023-05-21T07:24:32.337Z,101575.13
2023-05-21T07:26:58.678Z,101572.13
2023-05-21T07:29:25.124Z,101578.22
2023-05-21T07:31:51.464Z,101579.88
2023-05-21T07:34:17.806Z,101569.00
2023-05-21T07:36:44.203Z,101575.44
2023-05-21T07:39:10.892Z,101578.22
2023-05-21T07:41:37.296Z,101582.38
2023-05-21T07:44:03.734Z,101568.22
2023-05-21T07:46:30.353Z,101573.72
2023-05-21T07:48:56.831Z,101569.13
2023-05-21T07:51:23.383Z,101569.81
2023-05-21T07:53:49.748Z,101568.53
2023-05-21T07:56:16.116Z,101565.81
2023-05-21T07:58:45.710Z,101561.75
2023-05-21T08:01:12.528Z,101563.84
2023-05-21T08:03:39.356Z,101565.06
2023-05-21T08:06:05.873Z,101561.38
2023-05-21T08:08:32.565Z,101549.28
2023-05-21T08:10:59.089Z,101550.66
2023-05-21T08:13:25.729Z,101547.09
2023-05-21T08:15:53.539Z,101538.34
2023-05-21T08:18:19.945Z,101547.50
2023-05-21T08:20:46.393Z,101541.03
2023-05-21T08:23:12.835Z,101543.19
2023-05-21T08:25:39.239Z,101543.63
2023-05-21T08:28:07.062Z,101544.94
2023-05-21T08:30:33.911Z,101545.13
2023-05-21T08:33:01.125Z,101548.91
2023-05-21T08:35:27.955Z,101546.03
2023-05-21T08:37:54.336Z,101549.28
2023-05-21T08:40:20.883Z,101541.09
2023-05-21T08:42:48.941Z,101543.63
2023-05-21T08:45:20.631Z,101543.94
2023-05-21T08:47:50.471Z,101544.19
2023-05-21T08:50:20.551Z,101542.13
2023-05-21T08:52:47.047Z,101544.06
2023-05-21T08:55:13.937Z,101550.41
2023-05-21T08:57:43.559Z,101554.28
2023-05-21T09:00:11.697Z,101550.22
2023-05-21T09:02:40.781Z,101546.50
2023-05-21T09:05:09.407Z,101538.00
2023-05-21T09:07:55.677Z,101540.41
2023-05-21T09:10:29.329Z,101539.66
2023-05-21T09:12:55.882Z,101528.59
2023-05-21T09:15:22.589Z,101538.31
2023-05-21T09:17:49.094Z,101537.56
2023-05-21T09:20:16.477Z,101533.00
2023-05-21T09:22:48.170Z,101534.91
2023-05-21T09:25:21.461Z,101542.16
2023-05-21T09:27:47.896Z,101539.28
2023-05-21T09:30:16.177Z,101539.84
2023-05-21T09:32:43.662Z,101535.72
2023-05-21T09:35:14.299Z,101545.81
2023-05-21T09:37:45.004Z,101544.00
2023-05-21T09:40:15.478Z,101543.53
2023-05-21T09:42:45.344Z,101543.41
2023-05-21T09:45:12.272Z,101540.69
2023-05-21T09:47:43.648Z,101550.09
2023-05-21T09:50:20.790Z,101542.97
2023-05-21T09:52:50.063Z,101542.19
2023-05-21T09:55:16.983Z,101545.28
2023-05-21T09:57:44.668Z,101545.28
2023-05-21T10:00:19.364Z,101547.16
2023-05-21T10:02:47.924Z,101536.22
2023-05-21T10:05:16.461Z,101540.78
2023-05-21T10:07:56.126Z,101533.00
2023-05-21T10:10:23.655Z,101532.94
2023-05-21T10:13:14.375Z,101532.53
2023-05-21T10:15:55.580Z,101531.88
2023-05-21T10:18:23.497Z,101530.22
2023-05-21T10:20:51.212Z,101521.75
2023-05-21T10:23:18.909Z,101518.06
2023-05-21T10:25:46.129Z,101521.25
2023-05-21T10:28:16.872Z,101514.38
2023-05-21T10:30:44.506Z,101516.59
2023-05-21T10:33:16.818Z,101512.09
2023-05-21T10:35:46.596Z,101504.34
2023-05-21T10:38:13.575Z,101505.28
2023-05-21T10:40:40.182Z,101508.22
2023-05-21T10:43:34.407Z,101502.22
2023-05-21T10:46:03.706Z,101495.38
2023-05-21T10:48:50.830Z,101493.84
2023-05-21T10:51:38.313Z,101496.19
2023-05-21T10:54:19.631Z,101492.59
2023-05-21T10:56:54.947Z,101494.38
2023-05-21T10:59:24.195Z,101486.34
2023-05-21T11:01:56.837Z,101492.97
2023-05-21T11:04:26.725Z,101499.06
2023-05-21T11:06:53.352Z,101487.44
2023-05-21T11:09:19.978Z,101489.63
2023-05-21T11:11:54.221Z,101492.28
2023-05-21T11:14:27.654Z,101485.72
2023-05-21T11:16:55.140Z,101483.91
2023-05-21T11:19:21.638Z,101497.16
2023-05-21T11:21:51.626Z,101485.00
2023-05-21T11:24:21.199Z,101478.94
2023-05-21T11:26:47.529Z,101476.28
2023-05-21T11:29:14.787Z,101471.03
2023-05-21T11:31:48.763Z,101480.41
2023-05-21T11:34:19.412Z,101480.19
2023-05-21T11:36:48.321Z,101477.34
2023-05-21T11:39:17.740Z,101467.91
2023-05-21T11:42:04.314Z,101465.09
2023-05-21T11:44:41.223Z,101472.34
2023-05-21T11:47:12.594Z,101471.91
2023-05-21T11:49:39.333Z,101472.75
2023-05-21T11:52:07.787Z,101470.88
2023-05-21T11:54:40.191Z,101464.47
2023-05-21T11:57:07.890Z,101465.84
2023-05-21T11:59:35.378Z,101463.91
2023-05-21T12:02:03.093Z,101464.06
2023-05-21T12:04:30.627Z,101456.75
2023-05-21T12:06:58.445Z,101451.34
2023-05-21T12:09:25.009Z,101455.22
2023-05-21T12:11:51.604Z,101451.34
2023-05-21T12:14:18.088Z,101449.75
2023-05-21T12:16:44.628Z,101452.16
2023-05-21T12:19:11.071Z,101452.16
2023-05-21T12:21:38.084Z,101451.53
2023-05-21T12:24:04.611Z,101459.09
2023-05-21T12:26:33.230Z,101456.38
2023-05-21T12:28:59.760Z,101453.00
2023-05-21T12:31:27.459Z,101441.38
2023-05-21T12:33:53.885Z,101454.94
2023-05-21T12:36:27.673Z,101449.22
2023-05-21T12:38:54.616Z,101457.28
2023-05-21T12:41:22.017Z,101444.75
2023-05-21T12:43:48.840Z,101446.78
2023-05-21T12:46:17.577Z,101438.59
2023-05-21T12:48:54.447Z,101438.31
2023-05-21T12:51:20.854Z,101433.00
2023-05-21T12:53:47.640Z,101434.84
2023-05-21T12:56:15.673Z,101433.00
2023-05-21T12:58:42.834Z,101437.44
2023-05-21T13:01:10.837Z,101436.59
2023-05-21T13:03:38.512Z,101436.53
2023-05-21T13:06:09.033Z,101431.59
2023-05-21T13:08:35.937Z,101432.56
2023-05-21T13:11:03.188Z,101427.97
2023-05-21T13:13:30.331Z,101426.16
2023-05-21T13:15:57.000Z,101421.38
2023-05-21T13:18:23.491Z,101411.59
2023-05-21T13:20:51.559Z,101417.19
2023-05-21T13:23:18.002Z,101416.38
2023-05-21T13:25:44.358Z,101416.34
2023-05-21T13:28:13.080Z,101417.63
2023-05-21T13:30:39.788Z,101411.53
2023-05-21T13:33:06.522Z,101409.72
2023-05-21T13:35:36.785Z,101411.34
2023-05-21T13:38:03.275Z,101402.16
2023-05-21T13:40:29.613Z,101410.13
2023-05-21T13:42:56.108Z,101403.97
2023-05-21T13:45:25.335Z,101408.94
2023-05-21T13:47:51.714Z,101410.69
2023-05-21T13:50:18.200Z,101409.28
2023-05-21T13:52:45.870Z,101407.63
2023-05-21T13:55:12.441Z,101405.28
2023-05-21T13:57:40.372Z,101407.38
2023-05-21T14:00:09.220Z,101409.84
2023-05-21T14:02:35.833Z,101397.59
2023-05-21T14:05:02.186Z,101404.47
2023-05-21T14:07:28.580Z,101396.91
2023-05-21T14:09:55.170Z,101397.09
2023-05-21T14:12:22.161Z,101394.06
2023-05-21T14:14:49.693Z,101390.56
2023-05-21T14:17:16.126Z,101392.00
2023-05-21T14:19:42.510Z,101390.59
2023-05-21T14:22:08.905Z,101381.19
2023-05-21T14:24:35.319Z,101391.28
2023-05-21T14:27:01.626Z,101391.66
2023-05-21T14:29:28.105Z,101391.28
2023-05-21T14:31:54.553Z,101392.03
2023-05-21T14:34:20.948Z,101379.31
2023-05-21T14:36:47.334Z,101381.75
2023-05-21T14:39:13.823Z,101382.59
2023-05-21T14:41:40.384Z,101377.75
2023-05-21T14:44:06.897Z,101383.91
2023-05-21T14:46:33.574Z,101387.97
2023-05-21T14:49:00.462Z,101382.97
2023-05-21T14:51:26.884Z,101382.91
2023-05-21T14:53:53.290Z,101384.41
2023-05-21T14:56:21.886Z,101383.09
2023-05-21T14:58:48.384Z,101375.41
2023-05-21T15:01:14.880Z,101385.41
2023-05-21T15:03:41.426Z,101381.19
2023-05-21T15:06:08.030Z,101379.03
2023-05-21T15:08:34.537Z,101377.47
2023-05-21T15:11:00.897Z,101381.00
2023-05-21T15:13:27.278Z,101375.69
2023-05-21T15:15:53.624Z,101374.97
2023-05-21T15:18:20.077Z,101373.50
2023-05-21T15:20:46.473Z,101384.03
2023-05-21T15:23:17.168Z,101379.81
2023-05-21T15:25:44.972Z,101376.44
2023-05-21T15:28:14.072Z,101371.94
2023-05-21T15:30:40.478Z,101376.06
2023-05-21T15:33:07.064Z,101369.88
2023-05-21T15:35:35.491Z,101376.72
2023-05-21T15:38:02.256Z,101369.19
2023-05-21T15:40:28.590Z,101367.59
2023-05-21T15:42:54.988Z,101369.59
2023-05-21T15:45:21.362Z,101372.66
2023-05-21T15:48:03.155Z,101365.59
2023-05-21T15:50:29.502Z,101361.56
2023-05-21T15:52:56.027Z,101357.16
2023-05-21T15:55:22.464Z,101359.25
2023-05-21T15:57:48.823Z,101350.88
2023-05-21T16:00:15.418Z,101345.06
2023-05-21T16:02:42.019Z,101344.09
2023-05-21T16:05:09.032Z,101340.97
2023-05-21T16:07:37.786Z,101344.47
2023-05-21T16:10:04.955Z,101341.34
2023-05-21T16:12:31.354Z,101336.50
2023-05-21T16:14:57.798Z,101334.09
2023-05-21T16:17:24.234Z,101333.09
2023-05-21T16:19:50.944Z,101335.06
2023-05-21T16:22:17.375Z,101342.22
2023-05-21T16:24:43.720Z,101331.69
2023-05-21T16:27:10.078Z,101340.53
2023-05-21T16:29:38.699Z,101341.78
2023-05-21T16:32:06.767Z,101337.13
2023-05-21T16:34:34.309Z,101335.38
2023-05-21T16:37:00.700Z,101328.69
2023-05-21T16:39:27.049Z,101334.47
2023-05-21T16:41:55.077Z,101341.84
2023-05-21T16:44:21.410Z,101337.66
2023-05-21T16:46:47.773Z,101337.66
2023-05-21T16:49:14.124Z,101341.84
2023-05-21T16:51:40.524Z,101332.00
2023-05-21T16:54:06.939Z,101321.56
2023-05-21T16:56:33.296Z,101332.00
2023-05-21T16:58:59.728Z,101320.59
2023-05-21T17:01:26.344Z,101324.28
2023-05-21T17:03:53.329Z,101318.13
2023-05-21T17:06:19.947Z,101317.75
2023-05-21T17:08:46.357Z,101314.69
2023-05-21T17:11:13.069Z,101324.00
2023-05-21T17:13:39.393Z,101320.38
2023-05-21T17:16:06.156Z,101322.69
2023-05-21T17:18:32.595Z,101322.44
2023-05-21T17:20:59.053Z,101318.75
2023-05-21T17:23:25.492Z,101321.50
2023-05-21T17:25:52.546Z,101323.28
2023-05-21T17:28:19.310Z,101329.44
2023-05-21T17:30:46.828Z,101333.22
2023-05-21T17:33:14.656Z,101333.53
2023-05-21T17:35:41.440Z,101332.66
2023-05-21T17:38:07.811Z,101330.34
2023-05-21T17:40:34.261Z,101329.47
2023-05-21T17:43:01.679Z,101330.06
2023-05-21T17:45:28.025Z,101334.69
2023-05-21T17:47:55.259Z,101333.03
2023-05-21T17:50:22.509Z,101333.81
2023-05-21T17:52:49.088Z,101319.22
2023-05-21T17:55:15.518Z,101321.19
2023-05-21T17:57:41.910Z,101321.19
2023-05-21T18:00:08.966Z,101320.78
2023-05-21T18:02:35.391Z,101325.25
2023-05-21T18:05:01.811Z,101334.16
2023-05-21T18:07:28.230Z,101329.69
2023-05-21T18:09:54.663Z,101335.28
2023-05-21T18:12:21.311Z,101330.94
2023-05-21T18:14:47.726Z,101330.81
2023-05-21T18:17:14.160Z,101332.97
2023-05-21T18:19:40.654Z,101340.91
2023-05-21T18:22:07.686Z,101342.59
2023-05-21T18:24:34.339Z,101343.97
2023-05-21T18:27:00.812Z,101345.09
2023-05-21T18:29:27.154Z,101345.75
2023-05-21T18:31:53.745Z,101344.06
2023-05-21T18:34:20.340Z,101337.31
2023-05-21T18:36:48.019Z,101341.91
2023-05-21T18:39:14.376Z,101349.88
2023-05-21T18:41:41.067Z,101338.31
2023-05-21T18:44:07.521Z,101343.78
2023-05-21T18:46:34.105Z,101339.34
2023-05-21T18:49:00.719Z,101337.88
2023-05-21T18:51:27.235Z,101331.16
2023-05-21T18:53:53.728Z,101333.41
2023-05-21T18:56:22.030Z,101331.69
2023-05-21T18:58:48.548Z,101330.13
2023-05-21T19:01:15.109Z,101344.91
2023-05-21T19:03:41.470Z,101334.47
2023-05-21T19:06:08.491Z,101339.91
2023-05-21T19:08:34.878Z,101334.06
2023-05-21T19:11:01.264Z,101343.78
2023-05-21T19:13:27.712Z,101342.06
2023-05-21T19:15:54.101Z,101348.28
2023-05-21T19:18:20.525Z,101338.97
2023-05-21T19:20:46.888Z,101336.19
2023-05-21T19:23:13.640Z,101338.97
2023-05-21T19:25:40.025Z,101336.63
2023-05-21T19:28:06.368Z,101345.06
2023-05-21T19:30:34.907Z,101353.84
2023-05-21T19:33:01.726Z,101340.06
2023-05-21T19:35:28.239Z,101348.84
2023-05-21T19:37:58.807Z,101346.50
2023-05-21T19:40:25.682Z,101353.34
2023-05-21T19:42:52.066Z,101349.97
2023-05-21T19:45:21.111Z,101354.97
2023-05-21T19:47:47.593Z,101358.66
2023-05-21T19:50:13.991Z,101366.47
2023-05-21T19:52:40.769Z,101368.19
2023-05-21T19:55:10.189Z,101371.88
2023-05-21T19:57:37.161Z,101375.75
2023-05-21T20:00:05.069Z,101374.63
2023-05-21T20:02:31.498Z,101376.41
2023-05-21T20:04:58.904Z,101381.47
2023-05-21T20:07:25.479Z,101378.31
2023-05-21T20:09:52.367Z,101386.47
2023-05-21T20:12:19.169Z,101385.88
2023-05-21T20:14:47.308Z,101393.31
2023-05-21T20:17:14.307Z,101389.56
2023-05-21T20:19:40.942Z,101391.66
2023-05-21T20:22:07.403Z,101392.78
2023-05-21T20:24:33.824Z,101387.75
2023-05-21T20:27:01.425Z,101390.44
2023-05-21T20:29:28.637Z,101393.41
2023-05-21T20:31:55.149Z,101405.75
2023-05-21T20:34:21.626Z,101407.63
2023-05-21T20:36:48.308Z,101406.09
2023-05-21T20:39:15.519Z,101400.94
2023-05-21T20:41:44.760Z,101398.44
2023-05-21T20:44:11.744Z,101394.84
2023-05-21T20:46:38.770Z,101395.78
2023-05-21T20:49:05.775Z,101403.97
2023-05-21T20:51:32.259Z,101402.22
2023-05-21T20:53:58.958Z,101400.56
2023-05-21T20:56:40.112Z,101406.78
2023-05-21T20:59:10.444Z,101409.50
2023-05-21T21:01:37.818Z,101405.63
2023-05-21T21:04:04.755Z,101410.09
2023-05-21T21:06:31.737Z,101402.53
2023-05-21T21:08:58.205Z,101407.09
2023-05-21T21:11:26.562Z,101406.59
2023-05-21T21:13:52.989Z,101406.69
2023-05-21T21:16:19.376Z,101410.31
2023-05-21T21:18:46.860Z,101399.78
2023-05-21T21:21:13.441Z,101408.88
2023-05-21T21:23:39.789Z,101404.41
2023-05-21T21:26:06.206Z,101410.94
2023-05-21T21:28:32.544Z,101408.72
2023-05-21T21:30:58.892Z,101418.28
2023-05-21T21:33:26.590Z,101419.94
2023-05-21T21:35:53.047Z,101415.47
2023-05-21T21:38:19.489Z,101415.59
2023-05-21T21:40:45.846Z,101416.91
2023-05-21T21:43:12.204Z,101419.09
2023-05-21T21:45:38.816Z,101414.44
2023-05-21T21:48:05.684Z,101424.31
2023-05-21T21:50:32.124Z,101416.53
2023-05-21T21:52:59.748Z,101414.72
2023-05-21T21:55:26.131Z,101417.56
2023-05-21T21:57:52.468Z,101417.94
2023-05-21T22:00:19.140Z,101417.91
2023-05-21T22:02:48.295Z,101419.94
2023-05-21T22:05:14.831Z,101420.00
2023-05-21T22:07:42.619Z,101417.56
2023-05-21T22:10:09.434Z,101420.19
2023-05-21T22:12:35.862Z,101414.81
2023-05-21T22:15:05.042Z,101420.84
2023-05-21T22:17:32.599Z,101414.81
2023-05-21T22:19:59.046Z,101417.91
2023-05-21T22:22:25.929Z,101414.72
2023-05-21T22:24:53.669Z,101409.75
2023-05-21T22:27:20.553Z,101402.94
2023-05-21T22:29:46.996Z,101411.06
2023-05-21T22:32:13.595Z,101416.50
2023-05-21T22:34:39.980Z,101416.50
2023-05-21T22:37:06.372Z,101411.50
2023-05-21T22:39:32.685Z,101408.88
2023-05-21T22:41:59.471Z,101417.97
2023-05-21T22:44:25.906Z,101407.47
2023-05-21T22:46:52.366Z,101411.88
2023-05-21T22:49:19.663Z,101409.38
2023-05-21T22:51:46.207Z,101409.88
2023-05-21T22:54:12.543Z,101405.47
2023-05-21T22:56:38.920Z,101398.34
2023-05-21T22:59:05.218Z,101406.50
2023-05-21T23:01:31.856Z,101398.06
2023-05-21T23:03:58.191Z,101399.75
2023-05-21T23:06:24.568Z,101398.94
2023-05-21T23:08:51.000Z,101397.41
2023-05-21T23:11:17.417Z,101396.78
2023-05-21T23:13:43.761Z,101407.84
2023-05-21T23:16:10.172Z,101399.81
2023-05-21T23:18:36.700Z,101406.84
2023-05-21T23:21:03.148Z,101405.78
2023-05-21T23:23:29.661Z,101407.09
2023-05-21T23:25:57.465Z,101395.47
2023-05-21T23:28:24.121Z,101404.28
2023-05-21T23:30:51.499Z,101393.22
2023-05-21T23:33:18.129Z,101396.97
2023-05-21T23:35:44.460Z,101397.78
2023-05-21T23:38:10.849Z,101395.06
2023-05-21T23:40:37.380Z,101396.09
2023-05-21T23:43:04.602Z,101393.50
2023-05-21T23:45:31.456Z,101397.72
2023-05-21T23:47:57.849Z,101392.47
2023-05-21T23:50:24.664Z,101391.69
2023-05-21T23:52:51.100Z,101396.38
2023-05-21T23:55:17.593Z,101392.31
2023-05-21T23:57:43.971Z,101397.31
